Time;durP1;ratioP1;P1;durP2;ratioP2;P2;SDS_P1;SDS_P2;PMS_P1;PMS_P2;Temp;Humidity;BMP_temperature;BMP_pressure;BME280_temperature;BME280_humidity;BME280_pressure;Samples;Min_cycle;Max_cycle;Signal;HPM_P1;HPM_P2
2022/03/10 00:01:36;;;;;;;35.22;19.33;;;0.00;99.90;;;-146.41;100.00;57768.22;4980509;28;20118;-67
2022/03/10 00:04:09;;;;;;;48.38;26.33;;;0.00;99.90;;;-0.63;100.00;98259.25;5039316;28;20602;-65
2022/03/10 00:06:37;;;;;;;39.22;22.33;;;-0.10;99.90;;;-0.74;100.00;98259.94;5016997;28;20049;-65
2022/03/10 00:09:04;;;;;;;39.55;22.13;;;-0.20;99.90;;;-0.96;100.00;98259.63;5016367;28;20078;-65
2022/03/10 00:11:31;;;;;;;45.40;23.30;;;-0.20;99.90;;;-0.97;100.00;98259.63;5014619;28;20077;-65
2022/03/10 00:13:58;;;;;;;40.90;23.58;;;-0.30;99.90;;;-0.98;100.00;98265.56;5016514;28;20082;-66
2022/03/10 00:16:25;;;;;;;44.03;23.70;;;-0.30;99.90;;;-0.92;100.00;98258.00;5012647;28;20052;-65
2022/03/10 00:18:52;;;;;;;40.08;21.85;;;-0.40;99.90;;;-0.87;100.00;98262.34;5013722;28;20046;-66
2022/03/10 00:21:19;;;;;;;55.72;29.40;;;-0.30;99.90;;;-0.93;100.00;98253.75;5017010;28;20451;-65
2022/03/10 00:23:46;;;;;;;45.25;24.67;;;-0.40;99.90;;;-0.97;100.00;98252.84;5015904;28;20558;-65
2022/03/10 00:26:13;;;;;;;45.03;25.48;;;-0.40;99.90;;;-1.04;100.00;98261.25;5014790;28;20078;-65
2022/03/10 00:28:40;;;;;;;49.15;25.52;;;-0.40;99.90;;;-1.06;100.00;98261.22;5015766;28;20133;-65
2022/03/10 00:31:06;;;;;;;52.35;26.88;;;-0.40;99.90;;;-1.07;100.00;98261.22;5015112;28;20181;-66
2022/03/10 00:33:33;;;;;;;41.97;22.88;;;-0.50;99.90;;;-1.09;100.00;98265.41;5015552;28;20060;-66
2022/03/10 00:36:00;;;;;;;50.80;25.35;;;-0.50;99.90;;;-1.09;100.00;98261.19;5018201;28;20163;-65
2022/03/10 00:38:28;;;;;;;49.20;25.58;;;-0.50;99.90;;;-1.11;100.00;98259.44;5014259;28;20571;-65
2022/03/10 00:40:55;;;;;;;53.83;26.80;;;-0.60;99.90;;;-1.18;100.00;98260.19;5014170;28;20099;-65
2022/03/10 00:43:21;;;;;;;56.17;30.50;;;-0.60;99.90;;;-1.27;100.00;98260.91;5013654;28;20042;-66
2022/03/10 00:45:49;;;;;;;62.42;31.70;;;-0.60;99.90;;;-1.35;100.00;98263.31;5015835;28;20129;-66
2022/03/10 00:48:16;;;;;;;60.70;31.35;;;-0.60;99.90;;;-1.30;100.00;98261.72;5012868;28;20406;-65
2022/03/10 00:50:42;;;;;;;54.10;29.00;;;-0.60;99.90;;;-1.22;100.00;98263.53;5013298;28;20145;-65
2022/03/10 00:53:11;;;;;;;52.22;27.95;;;-0.60;99.90;;;-1.35;100.00;98260.75;5015405;28;20137;-66
2022/03/10 00:55:38;;;;;;;43.78;23.52;;;-0.70;99.90;;;-1.46;100.00;98259.72;5012760;28;20067;-66
2022/03/10 00:58:07;;;;;;;49.38;25.10;;;-0.70;99.90;;;-1.46;100.00;98264.81;5015178;28;20228;-65
2022/03/10 01:00:34;;;;;;;51.05;26.77;;;-0.70;99.90;;;-1.51;100.00;98271.53;5015507;28;20093;-65
2022/03/10 01:03:01;;;;;;;50.45;26.80;;;-0.80;99.90;;;-1.47;100.00;98268.22;5015066;28;20104;-65
2022/03/10 01:05:28;;;;;;;51.78;27.10;;;-0.80;99.90;;;-1.43;100.00;98275.09;5013010;28;20046;-65
2022/03/10 01:07:55;;;;;;;52.67;26.92;;;-0.80;99.90;;;-1.44;100.00;98277.59;5011817;28;20440;-65
2022/03/10 01:10:22;;;;;;;43.03;22.13;;;-0.80;99.90;;;-1.34;100.00;98270.13;5028770;28;20533;-64
2022/03/10 01:12:50;;;;;;;44.67;22.00;;;-0.80;99.90;;;-1.46;100.00;98277.56;5014735;28;20049;-64
2022/03/10 01:15:26;;;;;;;47.20;25.25;;;-0.80;99.90;;;-1.43;100.00;98270.00;5002051;28;20129;-65
2022/03/10 01:17:56;;;;;;;50.17;28.05;;;-0.90;99.90;;;-1.54;100.00;98267.25;5003038;28;20562;-65
2022/03/10 01:20:25;;;;;;;44.83;25.45;;;-0.90;99.90;;;-1.52;100.00;98273.25;5000265;28;20519;-65
2022/03/10 01:22:52;;;;;;;48.97;26.38;;;-0.90;99.90;;;-1.60;100.00;98264.59;4999859;28;20509;-65
2022/03/10 01:25:19;;;;;;;49.13;25.95;;;-0.90;99.90;;;-1.70;100.00;98268.69;5002029;28;20507;-65
2022/03/10 01:27:47;;;;;;;47.80;24.98;;;-1.00;99.90;;;-1.74;100.00;98263.53;5002171;28;20135;-65
2022/03/10 01:30:15;;;;;;;50.22;28.25;;;-1.00;99.90;;;-1.74;100.00;98263.53;4996500;28;20490;-65
2022/03/10 01:32:44;;;;;;;55.17;30.10;;;-1.10;99.90;;;-1.74;100.00;98264.38;4997519;28;20442;-66
2022/03/10 01:35:13;;;;;;;56.50;30.40;;;-1.10;99.90;;;-1.81;100.00;98261.72;5001268;28;20053;-65
2022/03/10 01:37:40;;;;;;;49.88;29.67;;;-1.10;99.90;;;-1.62;100.00;98261.22;4999183;28;20140;-65
2022/03/10 01:40:13;;;;;;;54.03;30.05;;;-1.10;99.90;;;-1.84;100.00;98246.41;5001442;28;20499;-65
2022/03/10 01:42:41;;;;;;;51.75;28.48;;;-1.00;99.90;;;-1.95;100.00;98264.88;5002178;28;20046;-65
2022/03/10 01:45:10;;;;;;;48.00;27.45;;;-1.10;99.90;;;-1.91;100.00;98255.59;4998922;28;20086;-64
2022/03/10 01:47:40;;;;;;;46.80;26.33;;;-1.20;99.90;;;-1.94;100.00;98255.53;5000126;28;20078;-65
2022/03/10 01:50:10;;;;;;;46.70;25.50;;;-1.10;99.90;;;-1.93;100.00;98249.63;5001791;28;20046;-65
2022/03/10 01:52:38;;;;;;;42.70;24.52;;;-1.10;99.90;;;-1.94;100.00;98247.91;5005193;28;20416;-65
2022/03/10 01:55:06;;;;;;;49.65;29.13;;;-1.10;99.90;;;-1.85;100.00;98258.25;4999763;28;20564;-65
2022/03/10 01:57:34;;;;;;;45.70;26.20;;;-1.20;99.90;;;-1.91;100.00;98255.59;4998356;28;20602;-65
2022/03/10 02:00:02;;;;;;;47.35;26.88;;;-1.20;99.90;;;-1.96;100.00;98262.28;5000453;28;20595;-65
2022/03/10 02:02:29;;;;;;;46.88;26.15;;;-1.20;99.90;;;-1.82;100.00;98249.84;5004128;28;20103;-65
2022/03/10 02:04:56;;;;;;;46.28;24.40;;;-1.20;99.90;;;-1.94;100.00;98253.00;4996672;28;20069;-64
2022/03/10 02:10:17;;;;;;;45.75;25.83;;;-1.20;99.90;;;-1.91;100.00;98255.59;4997714;28;20125;-65
2022/03/10 02:12:50;;;;;;;;;;;-1.30;99.90;;;-2.02;100.00;98249.47;4996675;28;20440;-65
2022/03/10 02:18:08;;;;;;;52.85;28.33;;;-1.30;99.90;;;-2.11;100.00;98256.09;4997234;28;20046;-65
2022/03/10 02:20:37;;;;;;;49.10;29.27;;;-1.40;99.90;;;-2.17;100.00;98252.56;4997309;28;20153;-65
2022/03/10 02:23:07;;;;;;;48.17;28.02;;;-1.50;99.90;;;-2.18;100.00;98248.34;5001440;28;20590;-64
2022/03/10 02:25:36;;;;;;;47.80;25.33;;;-1.40;99.90;;;-2.20;100.00;98247.44;4998559;28;20129;-64
2022/03/10 02:28:05;;;;;;;50.10;25.88;;;-1.40;99.90;;;-2.21;100.00;98251.69;4997235;28;20137;-64
2022/03/10 02:30:34;;;;;;;42.45;22.25;;;-1.40;99.90;;;-2.15;100.00;98244.13;4997398;28;20126;-64
2022/03/10 02:33:01;;;;;;;43.92;22.73;;;-1.50;99.90;;;-2.26;100.00;98245.63;4999048;28;20097;-63
2022/03/10 02:35:28;;;;;;;46.05;22.52;;;-1.40;99.90;;;-2.30;100.00;98254.06;5013623;28;20507;-64
2022/03/10 02:37:56;;;;;;;45.85;22.70;;;-1.50;99.90;;;-2.29;100.00;98249.81;4997333;28;20149;-65
2022/03/10 02:40:25;;;;;;;47.03;24.30;;;-1.50;99.90;;;-2.21;100.00;98246.59;4999576;28;20054;-64
2022/03/10 02:42:54;;;;;;;46.45;24.13;;;-1.50;99.90;;;-2.23;100.00;98244.84;5015473;28;20389;-64
2022/03/10 02:45:22;;;;;;;47.63;23.67;;;-1.50;99.90;;;-2.27;100.00;98243.94;4997397;28;20057;-64
2022/03/10 02:47:50;;;;;;;43.08;22.77;;;-1.50;99.90;;;-2.22;100.00;98239.78;5000844;28;20508;-65
2022/03/10 02:50:17;;;;;;;43.50;22.88;;;-1.50;99.90;;;-2.19;100.00;98246.59;4996791;28;20137;-64
2022/03/10 02:52:44;;;;;;;44.35;23.05;;;-1.50;99.90;;;-2.12;100.00;98243.38;4994087;28;20432;-64
2022/03/10 02:55:12;;;;;;;49.10;22.90;;;-1.50;99.90;;;-2.20;100.00;98245.75;5002037;28;20492;-65
2022/03/10 02:57:39;;;;;;;43.83;22.60;;;-1.50;99.90;;;-2.14;100.00;98247.56;4984003;28;20120;-65
2022/03/10 03:00:08;;;;;;;40.30;22.33;;;-1.50;99.90;;;-2.25;100.00;98236.34;4996351;28;20130;-64
2022/03/10 03:02:36;;;;;;;39.05;21.73;;;-1.50;99.90;;;-2.16;100.00;98244.97;5001880;28;20121;-63
2022/03/10 03:05:05;;;;;;;41.90;21.45;;;-1.50;99.90;;;-2.23;100.00;98247.41;5000513;28;20082;-64
2022/03/10 03:07:33;;;;;;;40.92;21.40;;;-1.60;99.90;;;-2.22;100.00;98244.88;4996088;28;20329;-65
2022/03/10 03:10:00;;;;;;;40.45;21.20;;;-1.60;99.90;;;-2.25;100.00;98244.81;4998069;28;20086;-66
2022/03/10 03:12:27;;;;;;;42.20;22.00;;;-1.70;99.90;;;-2.34;100.00;98255.66;4997600;28;20042;-66
2022/03/10 03:14:54;;;;;;;41.20;21.90;;;-1.60;99.90;;;-2.44;100.00;98252.91;4995765;28;20064;-67
2022/03/10 03:17:21;;;;;;;41.13;21.17;;;-1.70;99.90;;;-2.38;100.00;98255.56;4994704;28;20124;-66
2022/03/10 03:19:48;;;;;;;39.80;20.90;;;-1.70;99.90;;;-2.52;100.00;98261.25;4999851;28;20046;-66
2022/03/10 03:22:15;;;;;;;39.42;19.75;;;-1.70;99.90;;;-2.55;100.00;98266.28;5016989;28;20152;-66
2022/03/10 03:24:44;;;;;;;40.80;21.92;;;-1.70;99.90;;;-2.61;100.00;98260.19;4996225;28;20038;-66
2022/03/10 03:27:14;;;;;;;39.08;19.73;;;-1.80;99.90;;;-2.42;100.00;98261.41;4997650;28;20223;-66
2022/03/10 03:29:42;;;;;;;38.42;18.88;;;-1.80;99.90;;;-2.45;100.00;98257.13;5000597;28;20136;-67
2022/03/10 03:32:08;;;;;;;36.28;20.27;;;-1.80;99.90;;;-2.64;100.00;98260.16;4993726;28;20145;-66
2022/03/10 03:34:35;;;;;;;42.63;22.02;;;-1.80;99.90;;;-2.67;100.00;98255.84;5000374;28;20049;-65
2022/03/10 03:37:02;;;;;;;40.63;21.80;;;-1.80;99.90;;;-2.67;100.00;98255.84;5000615;28;20052;-63
2022/03/10 03:39:29;;;;;;;40.13;21.88;;;-1.80;99.90;;;-2.49;100.00;98254.50;4998999;28;20128;-63
2022/03/10 03:41:56;;;;;;;39.60;21.00;;;-1.80;99.90;;;-2.57;100.00;98262.84;4997484;28;20078;-66
2022/03/10 03:44:23;;;;;;;40.17;21.30;;;-1.80;99.90;;;-2.56;100.00;98256.06;4995323;28;20073;-66
2022/03/10 03:46:50;;;;;;;43.97;22.95;;;-1.80;99.90;;;-2.68;100.00;98263.44;4997163;28;20133;-66
2022/03/10 03:49:17;;;;;;;49.78;25.98;;;-1.80;99.90;;;-2.65;100.00;98258.41;4998194;28;20128;-66
2022/03/10 03:51:44;;;;;;;46.80;24.70;;;-1.80;99.90;;;-2.55;100.00;98258.66;5000533;28;20153;-67
2022/03/10 03:54:11;;;;;;;42.65;22.92;;;-1.80;99.90;;;-2.86;100.00;98261.38;4993993;28;20060;-66
2022/03/10 03:56:38;;;;;;;43.00;21.17;;;-1.80;99.90;;;-2.79;100.00;98264.06;4995779;28;20133;-66
2022/03/10 03:59:06;;;;;;;42.28;21.40;;;-1.90;99.90;;;-2.66;100.00;98259.25;4997044;28;20138;-66
2022/03/10 04:01:33;;;;;;;35.10;18.38;;;-1.90;99.90;;;-2.59;100.00;98267.03;4997713;28;20056;-66
2022/03/10 04:04:00;;;;;;;42.35;22.05;;;-1.90;99.90;;;-2.69;100.00;98260.06;4997665;28;20453;-64
2022/03/10 04:06:27;;;;;;;39.17;19.38;;;;;;;-2.77;100.00;98257.34;4996361;28;20522;-65
2022/03/10 04:08:55;;;;;;;37.47;20.15;;;;;;;-2.87;100.00;98257.97;4995253;28;20479;-64
2022/03/10 04:11:22;;;;;;;41.53;21.73;;;;;;;-2.81;100.00;98262.31;4996066;28;20058;-64
2022/03/10 04:13:50;;;;;;;46.83;24.00;;;;;;;-2.73;100.00;98265.88;4996925;28;20416;-64
2022/03/10 04:16:21;;;;;;;43.33;21.77;;;;;;;-2.84;100.00;98267.34;4997504;28;20369;-63
2022/03/10 04:19:33;;;;;;;40.90;21.65;;;;;;;-2.78;100.00;98267.50;4999416;28;20124;-66
2022/03/10 04:22:02;;;;;;;34.65;18.90;;;;;;;-2.70;100.00;98268.50;4996446;28;20085;-66
2022/03/10 04:24:35;;;;;;;35.97;19.98;;;;;;;-2.67;100.00;98268.53;4998144;28;20630;-66
2022/03/10 04:27:41;;;;;;;35.45;19.80;;;;;;;-2.71;100.00;98269.31;4995463;28;20052;-66
2022/03/10 04:30:10;;;;;;;42.28;21.75;;;;;;;-2.83;100.00;98267.38;4996420;28;20184;-67
2022/03/10 04:33:25;;;;;;;37.75;21.08;;;;;;;-2.84;100.00;98267.34;4993600;28;20138;-66
2022/03/10 04:36:36;;;;;;;;;;;;;;;-2.77;100.00;98269.19;4996344;28;20043;-66
2022/03/10 04:39:48;;;;;;;40.60;20.50;;;;;;;-2.81;100.00;98260.63;4993491;28;19925;-66
2022/03/10 04:43:00;;;;;;;42.35;22.38;;;;;;;-2.96;100.00;98263.72;4998836;28;20479;-65
2022/03/10 04:46:11;;;;;;;45.97;24.02;;;;;;;-2.86;100.00;98266.44;4995782;28;20446;-66
2022/03/10 04:49:22;;;;;;;45.03;22.73;;;;;;;-3.10;100.00;98265.09;4999327;28;20082;-66
2022/03/10 04:52:33;;;;;;;47.00;24.00;;;;;;;-2.98;100.00;98272.97;5004158;28;20089;-67
2022/03/10 04:55:44;;;;;;;42.42;22.88;;;;;;;-3.08;100.00;98281.22;4999866;28;20054;-66
2022/03/10 04:58:55;;;;;;;42.03;24.13;;;;;;;-2.97;100.00;98273.81;5001286;28;20058;-67
2022/03/10 05:02:05;;;;;;;41.78;21.92;;;;;;;-3.01;100.00;98275.47;4998429;28;20141;-67
2022/03/10 05:05:18;;;;;;;33.63;18.77;;;;;;;-3.21;100.00;98274.16;4997735;28;20058;-66
2022/03/10 05:08:30;;;;;;;33.25;19.05;;;;;;;-3.22;100.00;98274.97;4997563;28;20054;-66
2022/03/10 05:10:59;;;;;;;40.75;22.17;;;;;;;-3.34;100.00;98273.00;5001072;28;20060;-66
2022/03/10 05:14:10;;;;;;;44.95;23.00;;;;;;;-3.17;100.00;98268.28;4999356;28;20129;-66
2022/03/10 05:16:38;;;;;;;46.53;23.98;;;;;;;-3.06;100.00;98266.84;4999034;28;20541;-66
2022/03/10 05:19:38;;;;;;;38.05;20.73;;;;;;;-3.13;100.00;98271.78;4997720;28;20104;-66
2022/03/10 05:22:07;;;;;;;39.47;20.17;;;;;;;-3.14;100.00;98270.94;5002830;28;20054;-65
2022/03/10 05:24:35;;;;;;;39.05;20.80;;;-2.30;99.90;;;-3.06;100.00;98277.00;4999813;28;20105;-66
2022/03/10 05:27:03;;;;;;;39.13;20.40;;;-2.30;99.90;;;-3.11;100.00;98278.59;5002762;28;20082;-66
2022/03/10 05:29:30;;;;;;;37.40;21.55;;;-2.30;99.90;;;-3.02;100.00;98275.41;4989392;28;20100;-66
2022/03/10 05:31:57;;;;;;;37.15;21.02;;;-2.30;99.90;;;-2.90;100.00;98273.13;4999861;28;20057;-66
2022/03/10 05:34:24;;;;;;;39.50;21.67;;;-2.20;99.90;;;-3.15;100.00;98276.81;4997328;28;20082;-66
2022/03/10 05:36:52;;;;;;;44.13;23.98;;;;;;;-3.17;100.00;98268.28;4997291;28;20050;-66
2022/03/10 05:39:19;;;;;;;50.65;26.90;;;-2.20;99.90;;;-3.36;100.00;98278.03;4998613;28;20047;-66
2022/03/10 05:41:46;;;;;;;45.72;25.38;;;-2.30;99.90;;;-3.33;100.00;98277.28;5000280;28;20078;-66
2022/03/10 05:44:16;;;;;;;43.35;26.23;;;;;;;-3.23;100.00;98279.19;4996375;28;20046;-66
2022/03/10 05:46:44;;;;;;;45.45;25.42;;;;;;;-3.17;100.00;98283.53;4997387;28;20060;-66
2022/03/10 05:49:11;;;;;;;52.45;25.02;;;;;;;-3.09;100.00;98283.72;5000576;28;20423;-66
2022/03/10 05:51:39;;;;;;;47.25;24.65;;;;;;;-2.95;100.00;98280.66;5002939;28;20082;-66
2022/03/10 05:54:06;;;;;;;44.88;24.58;;;;;;;-3.04;100.00;98285.53;4999166;28;20524;-66
2022/03/10 05:56:34;;;;;;;50.85;27.98;;;;;;;-3.06;100.00;98289.72;5000244;28;20474;-66
2022/03/10 05:59:03;;;;;;;52.92;26.88;;;;;;;-2.96;100.00;98283.19;5004079;28;20050;-66
2022/03/10 06:01:51;;;;;;;53.25;27.02;;;;;;;-3.19;100.00;98290.28;4999421;28;20543;-67
2022/03/10 06:04:19;;;;;;;56.40;27.38;;;;;;;-3.12;100.00;98294.69;5004123;28;20054;-66
2022/03/10 06:06:48;;;;;;;46.17;24.02;;;;;;;-3.28;100.00;98290.91;4999981;28;20061;-66
2022/03/10 06:09:15;;;;;;;51.70;26.40;;;;;;;-3.26;100.00;98296.00;4997855;28;20056;-66
2022/03/10 06:11:43;;;;;;;45.58;25.00;;;;;;;-3.08;100.00;98300.66;4999824;28;20137;-66
2022/03/10 06:14:11;;;;;;;51.33;27.27;;;;;;;-3.03;100.00;98291.50;5002051;28;20150;-65
2022/03/10 06:16:40;;;;;;;60.05;28.85;;;;;;;-2.97;100.00;98295.00;5002602;28;20084;-66
2022/03/10 06:19:08;;;;;;;51.58;26.88;;;;;;;-2.97;100.00;98295.00;4995462;28;20166;-66
2022/03/10 06:21:37;;;;;;;48.47;26.10;;;;;;;-2.97;100.00;98297.53;5000188;28;20078;-66
2022/03/10 06:24:07;;;;;;;55.67;30.75;;;;;;;-3.08;100.00;98303.19;4996930;28;20157;-66
2022/03/10 06:26:36;;;;;;;62.05;31.35;;;;;;;-3.15;100.00;98309.81;4998304;28;20057;-66
2022/03/10 06:29:05;;;;;;;57.13;31.00;;;;;;;-3.15;100.00;98309.81;5001399;28;20057;-66
2022/03/10 06:31:34;;;;;;;57.08;31.58;;;;;;;-3.21;100.00;98314.78;4997599;28;20137;-66
2022/03/10 06:34:01;;;;;;;56.13;32.33;;;;;;;-3.23;100.00;98312.19;5001072;28;20073;-66
2022/03/10 06:36:29;;;;;;;52.35;29.92;;;;;;;-3.31;100.00;98322.97;4999484;28;20128;-66
2022/03/10 06:38:56;;;;;;;58.25;32.38;;;;;;;-3.13;100.00;98320.03;4997104;28;20157;-66
2022/03/10 06:41:23;;;;;;;58.08;31.38;;;;;;;-2.99;100.00;98321.19;4994532;28;20061;-66
2022/03/10 06:43:50;;;;;;;53.90;28.65;;;;;;;-3.04;100.00;98320.25;4998934;28;20126;-66
2022/03/10 06:46:18;;;;;;;61.92;29.27;;;;;;;-2.96;100.00;98326.38;5001048;28;20133;-66
2022/03/10 06:48:45;;;;;;;52.05;29.63;;;;;;;-2.83;100.00;98325.81;4998569;28;20046;-66
2022/03/10 06:51:15;;;;;;;55.80;30.80;;;;;;;-2.67;100.00;98324.44;4998127;28;20120;-66
2022/03/10 06:53:42;;;;;;;44.90;26.05;;;;;;;-2.60;100.00;98327.97;4998089;28;20057;-65
2022/03/10 06:56:10;;;;;;;48.03;25.35;;;;;;;-2.60;100.00;98331.41;5000799;28;20125;-62
2022/03/10 06:58:37;;;;;;;47.15;25.48;;;;;;;-2.56;100.00;98338.25;4996813;28;20092;-66
2022/03/10 07:01:04;;;;;;;44.92;24.90;;;;;;;-2.37;100.00;98331.03;4994713;28;20138;-64
2022/03/10 07:03:32;;;;;;;48.78;26.80;;;;;;;-2.36;100.00;98325.13;4996590;28;20057;-64
2022/03/10 07:05:59;;;;;;;44.80;25.40;;;;;;;-2.29;100.00;98333.72;4997175;28;20499;-63
2022/03/10 07:08:26;;;;;;;45.35;25.45;;;;;;;-2.05;100.00;98326.59;4994853;28;20093;-64
2022/03/10 07:10:53;;;;;;;44.72;24.48;;;;;;;-1.91;100.00;98332.78;4996789;28;20053;-64
2022/03/10 07:13:21;;;;;;;48.80;23.63;;;;;;;-1.97;100.00;98329.28;4996059;28;20607;-66
2022/03/10 07:15:53;;;;;;;47.25;26.88;;;;;;;-1.81;100.00;98333.81;4996461;28;20567;-64
2022/03/10 07:18:21;;;;;;;42.72;23.30;;;;;;;-1.74;100.00;98340.72;4996462;28;20056;-64
2022/03/10 07:20:48;;;;;;;38.28;21.02;;;;;;;-1.72;100.00;98336.53;4998886;28;20143;-64
2022/03/10 07:23:16;;;;;;;37.90;22.00;;;;;;;-1.61;100.00;98334.19;4997872;28;20052;-64
2022/03/10 07:25:43;;;;;;;33.92;19.52;;;;;;;-1.48;100.00;98330.19;4996506;28;20060;-64
2022/03/10 07:28:11;;;;;;;45.08;21.83;;;;;;;-1.39;100.00;98332.00;4998803;28;20068;-64
2022/03/10 07:30:38;;;;;;;38.45;22.23;;;;;;;-1.24;100.00;98332.25;4996325;28;20132;-64
2022/03/10 07:33:05;;;;;;;37.80;20.08;;;;;;;-0.99;100.00;98336.06;4996331;28;20125;-64
2022/03/10 07:35:33;;;;;;;33.63;18.48;;;;;;;-0.72;100.00;98334.75;4993102;28;20132;-64
2022/03/10 07:38:00;;;;;;;31.20;17.77;;;;;;;-0.57;100.00;98339.19;4995419;28;20507;-64
2022/03/10 07:40:28;;;;;;;33.15;18.20;;;;;;;-0.30;100.00;98337.00;4994385;28;20555;-64
2022/03/10 07:42:55;;;;;;;30.45;17.83;;;;;;;-0.13;100.00;98337.25;4997707;28;20058;-66
2022/03/10 07:45:22;;;;;;;33.03;19.38;;;;;;;0.11;100.00;98334.09;4991571;28;20046;-64
2022/03/10 07:47:50;;;;;;;32.13;16.40;;;;;;;0.36;100.00;98327.56;4995113;28;20133;-64
2022/03/10 07:50:19;;;;;;;33.63;18.77;;;;;;;0.51;100.00;98320.91;5000522;28;20078;-64
2022/03/10 07:53:32;;;;;;;31.00;17.30;;;;;;;1.12;100.00;98312.84;4999092;28;20453;-64
2022/03/10 07:56:31;;;;;;;32.20;17.17;;;;;;;1.50;100.00;98309.69;4998145;28;20535;-64
2022/03/10 07:58:59;;;;;;;31.98;18.52;;;;;;;2.22;100.00;98304.84;4998702;28;20484;-64
2022/03/10 08:01:26;;;;;;;31.08;17.42;;;;;;;2.97;100.00;98294.66;4998613;28;20054;-64
2022/03/10 08:04:36;;;;;;;27.95;16.48;;;;;;;4.01;100.00;98290.91;4996135;28;20061;-64
2022/03/10 08:07:40;;;;;;;36.13;19.63;;;;;;;5.83;100.00;98285.94;4994617;28;20057;-65
2022/03/10 08:10:34;;;;;;;25.50;16.27;;;;;;;7.40;100.00;98280.97;4996089;28;20078;-64
2022/03/10 08:13:09;;;;;;;28.60;17.40;;;;;;;8.20;100.00;98271.63;4994128;28;20081;-65
2022/03/10 08:15:40;;;;;;;28.75;17.65;;;;;;;9.05;100.00;98267.91;4999612;28;20141;-65
2022/03/10 08:18:10;;;;;;;24.90;17.20;;;7.40;99.90;;;9.65;100.00;98263.75;4995442;28;20130;-64
2022/03/10 08:20:39;;;;;;;26.58;18.05;;;;;;;9.73;100.00;98264.38;4991777;28;20042;-64
2022/03/10 08:23:07;;;;;;;25.42;17.48;;;8.40;99.90;;;9.54;100.00;98264.03;4994235;28;20058;-65
2022/03/10 08:25:38;;;;;;;26.23;16.83;;;8.60;93.20;;;9.54;97.36;98266.63;5000064;28;20400;-65
2022/03/10 08:28:08;;;;;;;28.65;17.55;;;8.90;91.10;;;9.98;97.00;98250.69;5000820;28;20097;-65
2022/03/10 08:30:35;;;;;;;32.95;17.48;;;9.30;90.50;;;9.34;92.63;98249.03;5002428;28;20053;-65
2022/03/10 08:33:03;;;;;;;26.65;17.80;;;9.30;86.50;;;9.83;93.18;98255.44;4999009;28;20060;-64
2022/03/10 08:35:31;;;;;;;27.30;17.60;;;9.50;87.20;;;9.42;93.56;98247.09;4999605;28;20042;-65
2022/03/10 08:37:58;;;;;;;27.52;17.17;;;9.50;86.20;;;9.78;94.52;98251.28;4996163;28;20052;-65
2022/03/10 08:40:25;;;;;;;26.73;17.13;;;9.70;86.40;;;9.96;92.45;98242.13;4999684;28;20070;-65
2022/03/10 08:42:52;;;;;;;23.83;17.30;;;9.70;85.00;;;10.70;92.09;98240.72;4999935;28;20180;-64
2022/03/10 08:45:20;;;;;;;25.13;15.60;;;10.10;85.90;;;10.87;89.96;98242.75;5000481;28;20066;-65
2022/03/10 08:47:47;;;;;;;21.17;16.95;;;10.40;84.50;;;11.17;89.48;98243.47;4998604;28;20516;-65
2022/03/10 08:50:23;;;;;;;22.52;15.98;;;10.60;84.00;;;11.92;84.38;98237.38;4999129;28;20050;-65
2022/03/10 08:52:52;;;;;;;25.35;17.65;;;10.80;82.80;;;11.17;85.38;98246.06;5002119;28;20050;-65
2022/03/10 08:55:21;;;;;;;22.38;16.27;;;10.80;81.20;;;11.59;84.47;98247.25;5000790;28;20046;-65
2022/03/10 08:57:48;;;;;;;24.40;15.63;;;11.00;80.50;;;10.61;83.64;98246.22;5002792;28;20077;-65
2022/03/10 09:00:18;;;;;;;28.10;16.88;;;10.80;79.30;;;11.25;82.85;98251.88;4997670;28;20046;-65
2022/03/10 09:02:45;;;;;;;28.40;17.35;;;11.00;79.50;;;11.66;82.94;98243.50;4995467;28;20042;-65
2022/03/10 09:05:13;;;;;;;27.30;16.92;;;11.10;78.60;;;11.32;83.98;98242.09;5003422;28;20423;-65
2022/03/10 09:07:43;;;;;;;26.77;16.95;;;11.20;78.80;;;11.42;81.01;98240.03;4996738;28;20148;-65
2022/03/10 09:10:10;;;;;;;25.38;16.17;;;11.20;77.90;;;12.34;78.99;98234.03;4998167;28;20065;-64
2022/03/10 09:12:39;;;;;;;25.60;16.65;;;11.30;78.40;;;11.96;76.13;98236.34;5001752;28;20084;-65
2022/03/10 09:15:07;;;;;;;26.15;17.35;;;11.40;77.00;;;11.03;78.66;98248.28;5000046;28;20113;-65
2022/03/10 09:17:34;;;;;;;22.48;16.17;;;11.30;75.70;;;11.33;79.98;98238.59;5001205;28;20151;-65
2022/03/10 09:20:04;;;;;;;24.48;16.17;;;11.60;75.40;;;11.69;75.37;98241.63;5003324;28;20490;-65
2022/03/10 09:22:32;;;;;;;23.65;16.02;;;11.60;74.20;;;11.87;77.72;98231.47;5002532;28;20054;-64
2022/03/10 09:25:02;;;;;;;21.33;15.07;;;11.80;75.30;;;13.27;72.36;98225.88;4998533;28;20142;-65
2022/03/10 09:27:30;;;;;;;23.45;17.08;;;12.20;74.70;;;12.94;70.88;98223.81;4999001;28;20721;-65
2022/03/10 09:29:57;;;;;;;24.98;16.20;;;12.40;73.40;;;12.97;66.17;98221.91;4997269;28;20153;-64
2022/03/10 09:32:24;;;;;;;29.13;17.42;;;12.40;72.80;;;12.16;68.80;98221.72;4997986;28;20089;-65
2022/03/10 09:34:51;;;;;;;24.08;16.10;;;12.30;72.30;;;13.10;69.84;98218.78;4996388;28;20076;-64
2022/03/10 09:37:18;;;;;;;22.15;16.73;;;12.30;73.20;;;13.41;65.44;98217.50;5004414;28;20133;-64
2022/03/10 09:39:45;;;;;;;19.63;14.82;;;12.20;73.20;;;13.57;64.37;98215.88;4999588;28;20053;-65
2022/03/10 09:42:14;;;;;;;24.40;16.02;;;12.10;73.50;;;13.06;65.97;98218.06;4998881;28;20077;-65
2022/03/10 09:44:43;;;;;;;26.25;15.52;;;11.80;74.30;;;12.01;67.95;98224.00;4983567;28;20133;-64
2022/03/10 09:47:10;;;;;;;21.70;15.23;;;11.40;73.80;;;12.25;68.86;98210.97;4998155;28;20065;-65
2022/03/10 09:49:38;;;;;;;27.20;16.98;;;11.10;74.70;;;11.77;70.86;98209.28;5011922;28;20153;-64
2022/03/10 09:52:08;;;;;;;27.25;16.05;;;10.80;75.90;;;11.33;74.33;98210.00;5006513;28;20084;-64
2022/03/10 09:54:39;;;;;;;22.98;14.90;;;10.80;76.50;;;10.44;77.56;98211.25;4998520;28;20074;-64
2022/03/10 09:57:08;;;;;;;23.15;14.45;;;10.60;75.90;;;10.57;76.76;98210.88;4996654;28;20225;-64
2022/03/10 09:59:50;;;;;;;24.90;14.45;;;10.50;75.80;;;10.23;78.47;98209.31;5001558;28;20069;-64
2022/03/10 10:02:18;;;;;;;21.73;14.32;;;10.50;76.20;;;10.20;79.33;98212.84;4997292;28;20096;-64
2022/03/10 10:04:46;;;;;;;22.25;13.80;;;10.40;76.60;;;9.84;79.86;98212.22;4998481;28;20173;-64
2022/03/10 10:07:14;;;;;;;24.38;13.60;;;10.40;76.30;;;9.82;81.78;98207.06;5009730;28;20520;-64
2022/03/10 10:09:46;;;;;;;18.88;12.63;;;10.30;76.70;;;9.87;83.25;98206.94;4999577;28;20054;-65
2022/03/10 10:12:15;;;;;;;20.20;13.40;;;10.30;77.40;;;9.98;80.72;98210.06;5004677;28;20141;-64
2022/03/10 10:14:46;;;;;;;21.20;13.40;;;10.30;76.50;;;10.05;81.36;98211.56;4995700;28;20105;-65
2022/03/10 10:17:13;;;;;;;20.75;13.40;;;10.30;77.20;;;9.81;81.60;98201.94;4998222;28;20078;-64
2022/03/10 10:19:42;;;;;;;19.95;12.48;;;10.30;76.40;;;9.45;83.05;98207.28;4998528;28;20078;-65
2022/03/10 10:22:29;;;;;;;20.38;13.23;;;10.30;76.50;;;9.53;83.86;98205.31;4996113;28;21069;-63
2022/03/10 10:25:05;;;;;;;20.10;12.32;;;10.30;76.80;;;9.78;82.05;98204.59;5000717;28;20047;-65
2022/03/10 10:27:34;;;;;;;19.60;12.38;;;10.30;76.30;;;9.84;83.88;98205.28;5013598;28;20451;-64
2022/03/10 10:30:05;;;;;;;22.60;12.10;;;10.40;77.30;;;9.94;87.94;98205.84;4998033;28;20137;-64
2022/03/10 10:32:56;;;;;;;23.52;12.43;;;10.50;78.80;;;10.02;86.73;98197.84;4999585;28;20073;-64
2022/03/10 10:35:24;;;;;;;20.83;11.63;;;10.60;78.60;;;10.01;82.86;98203.91;4995740;28;20050;-64
2022/03/10 10:37:55;;;;;;;17.88;10.32;;;10.70;76.00;;;10.13;81.31;98185.41;4998177;28;20046;-65
2022/03/10 10:40:26;;;;;;;15.73;9.48;;;10.80;75.70;;;10.52;80.16;98182.47;4994872;28;20141;-65
2022/03/10 10:42:56;;;;;;;16.00;10.02;;;10.90;76.70;;;10.58;80.36;98178.81;5000447;28;20085;-63
2022/03/10 10:45:36;;;;;;;16.10;9.38;;;11.00;75.90;;;10.60;79.68;98183.03;4987603;28;20137;-64
2022/03/10 10:48:04;;;;;;;15.68;9.82;;;11.10;75.60;;;10.78;80.34;98173.78;4995066;28;20672;-65
2022/03/10 10:50:34;;;;;;;15.65;9.77;;;11.30;75.80;;;11.06;78.84;98170.25;4999813;28;20125;-64